createdAt,value
2018-07-23T00:02:48.334Z,14.70
2018-07-23T00:07:40.889Z,15.73
2018-07-23T00:12:33.399Z,71.23
2018-07-23T00:17:25.997Z,100.43
2018-07-23T00:22:18.673Z,97.43
2018-07-23T00:27:11.308Z,89.73
2018-07-23T00:32:03.899Z,78.97
2018-07-23T00:36:56.433Z,65.33
2018-07-23T00:41:48.940Z,45.23
2018-07-23T00:46:41.489Z,37.10
2018-07-23T00:51:34.109Z,27.17
2018-07-23T00:56:26.643Z,32.87
2018-07-23T01:01:19.166Z,30.77
2018-07-23T01:06:11.775Z,22.93
2018-07-23T01:11:04.574Z,19.77
2018-07-23T01:15:57.109Z,21.33
2018-07-23T01:20:49.682Z,20.50
2018-07-23T01:25:42.208Z,19.63
2018-07-23T01:30:34.771Z,19.70
2018-07-23T01:35:27.305Z,20.17
2018-07-23T01:40:19.912Z,19.07
2018-07-23T01:45:12.503Z,20.90
2018-07-23T01:50:05.392Z,18.83
2018-07-23T01:54:58.076Z,16.13
2018-07-23T01:59:50.606Z,16.80
2018-07-23T02:04:43.179Z,16.63
2018-07-23T02:09:35.730Z,16.53
2018-07-23T02:14:28.260Z,17.17
2018-07-23T02:19:20.761Z,19.37
2018-07-23T02:24:13.356Z,17.43
2018-07-23T02:29:05.922Z,17.27
2018-07-23T02:33:58.470Z,17.77
2018-07-23T02:38:51.085Z,17.93
2018-07-23T02:43:43.643Z,18.30
2018-07-23T02:48:36.268Z,17.93
2018-07-23T02:53:28.792Z,17.67
2018-07-23T02:58:21.396Z,23.67
2018-07-23T03:03:14.058Z,18.30
2018-07-23T03:08:06.641Z,17.60
2018-07-23T03:12:59.161Z,18.07
2018-07-23T03:17:51.737Z,18.67
2018-07-23T03:22:44.279Z,19.30
2018-07-23T03:27:36.884Z,17.87
2018-07-23T03:32:29.507Z,17.90
2018-07-23T03:37:22.054Z,17.87
2018-07-23T03:42:14.540Z,19.07
2018-07-23T03:47:07.061Z,18.00
2018-07-23T03:51:59.681Z,17.67
2018-07-23T03:56:52.438Z,19.40
2018-07-23T04:01:44.993Z,16.60
2018-07-23T04:06:37.533Z,15.60
2018-07-23T04:11:30.076Z,15.90
2018-07-23T04:16:22.676Z,14.73
2018-07-23T04:21:15.323Z,16.10
2018-07-23T04:26:07.884Z,15.97
2018-07-23T04:31:00.467Z,17.37
2018-07-23T04:35:53.051Z,14.60
2018-07-23T04:40:45.675Z,14.50
2018-07-23T04:45:38.217Z,14.00
2018-07-23T04:50:30.855Z,12.50
2018-07-23T04:55:23.426Z,14.30
2018-07-23T05:00:16.033Z,14.50
2018-07-23T05:05:08.619Z,14.33
2018-07-23T05:10:01.194Z,11.83
2018-07-23T05:14:53.791Z,12.23
2018-07-23T05:19:46.579Z,12.70
2018-07-23T05:24:39.301Z,10.33
2018-07-23T05:29:31.817Z,11.47
2018-07-23T05:34:24.359Z,9.47
2018-07-23T05:39:17.051Z,8.60
2018-07-23T05:44:09.613Z,8.10
2018-07-23T05:49:02.227Z,10.23
2018-07-23T05:53:54.971Z,13.10
2018-07-23T05:58:47.610Z,10.37
2018-07-23T06:03:40.296Z,9.37
2018-07-23T06:13:21.475Z,7.00
2018-07-23T06:18:14.103Z,13.37
2018-07-23T06:23:06.837Z,9.33
2018-07-23T06:28:00.839Z,6.37
2018-07-23T06:32:53.399Z,7.67
2018-07-23T06:37:46.036Z,10.17
2018-07-23T06:42:38.634Z,7.90
2018-07-23T06:47:31.421Z,9.73
2018-07-23T06:52:24.112Z,6.73
2018-07-23T06:57:16.693Z,10.83
2018-07-23T07:02:09.377Z,6.87
2018-07-23T07:07:01.948Z,5.87
2018-07-23T07:11:54.638Z,8.67
2018-07-23T07:16:47.213Z,6.13
2018-07-23T07:21:39.733Z,8.53
2018-07-23T07:26:32.282Z,6.53
2018-07-23T07:31:24.891Z,8.17
2018-07-23T07:36:17.586Z,3.83
2018-07-23T07:41:10.149Z,3.80
2018-07-23T07:46:02.865Z,7.13
2018-07-23T07:50:55.648Z,8.27
2018-07-23T07:55:48.212Z,6.73
2018-07-23T08:00:40.789Z,9.70
2018-07-23T08:05:33.386Z,8.37
2018-07-23T08:10:26.048Z,6.00
2018-07-23T08:15:18.598Z,5.17
2018-07-23T08:20:11.230Z,3.83
2018-07-23T08:25:03.895Z,6.10
2018-07-23T08:29:56.475Z,6.30
2018-07-23T08:34:49.071Z,7.00
2018-07-23T08:39:41.624Z,5.47
2018-07-23T08:44:34.185Z,5.13
2018-07-23T08:49:26.896Z,7.03
2018-07-23T08:54:19.543Z,9.87
2018-07-23T08:59:12.142Z,4.00
2018-07-23T09:04:05.255Z,5.70
2018-07-23T09:08:57.885Z,4.40
2018-07-23T09:13:50.568Z,4.00
2018-07-23T09:18:43.161Z,7.37
2018-07-23T09:23:35.737Z,4.27
2018-07-23T09:28:28.408Z,5.13
2018-07-23T09:33:22.322Z,3.40
2018-07-23T09:38:14.901Z,3.00
2018-07-23T09:43:07.583Z,7.03
2018-07-23T09:48:00.213Z,7.80
2018-07-23T09:52:52.798Z,2.83
2018-07-23T09:57:45.491Z,7.27
2018-07-23T10:02:38.061Z,6.73
2018-07-23T10:07:30.703Z,4.27
2018-07-23T10:12:23.324Z,4.60
2018-07-23T10:17:16.007Z,3.23
2018-07-23T10:22:08.716Z,4.57
2018-07-23T10:27:01.360Z,4.27
2018-07-23T10:31:53.918Z,3.20
2018-07-23T10:36:46.512Z,3.87
2018-07-23T10:41:39.156Z,7.20
2018-07-23T10:46:31.942Z,2.97
2018-07-23T10:51:24.523Z,3.77
2018-07-23T10:56:17.103Z,4.13
2018-07-23T11:01:09.822Z,3.90
2018-07-23T11:06:02.441Z,2.73
2018-07-23T11:10:54.998Z,3.13
2018-07-23T11:15:47.604Z,3.50
2018-07-23T11:20:40.151Z,4.50
2018-07-23T11:25:40.376Z,3.40
2018-07-23T11:30:25.361Z,3.03
2018-07-23T11:35:17.950Z,3.97
2018-07-23T11:40:10.554Z,3.03
2018-07-23T11:45:03.341Z,3.47
2018-07-23T11:49:55.904Z,3.20
2018-07-23T11:54:48.558Z,2.60
2018-07-23T11:59:41.249Z,3.80
2018-07-23T12:04:33.939Z,3.83
2018-07-23T12:09:26.530Z,6.60
2018-07-23T12:14:19.282Z,3.97
2018-07-23T12:19:11.954Z,4.90
2018-07-23T12:24:05.083Z,9.43
2018-07-23T12:28:57.613Z,12.97
2018-07-23T12:33:50.357Z,3.80
2018-07-23T12:38:43.042Z,3.23
2018-07-23T12:43:35.631Z,4.10
2018-07-23T12:48:28.290Z,8.87
2018-07-23T12:53:20.869Z,7.20
2018-07-23T12:58:13.454Z,2.90
2018-07-23T13:03:06.057Z,9.73
2018-07-23T13:07:59.148Z,5.67
2018-07-23T13:12:51.852Z,4.00
2018-07-23T13:17:44.482Z,2.90
2018-07-23T13:22:37.099Z,4.03
2018-07-23T13:27:29.859Z,5.83
2018-07-23T13:32:22.456Z,5.93
2018-07-23T13:37:15.151Z,6.03
2018-07-23T13:42:07.874Z,8.23
2018-07-23T13:47:00.510Z,5.13
2018-07-23T13:51:53.087Z,5.03
2018-07-23T13:56:45.641Z,4.83
2018-07-23T14:01:38.319Z,4.87
2018-07-23T14:06:31.129Z,4.67
2018-07-23T14:11:23.738Z,3.90
2018-07-23T14:16:16.401Z,4.30
2018-07-23T14:21:09.192Z,3.00
2018-07-23T14:26:01.923Z,3.67
2018-07-23T14:30:54.571Z,8.50
2018-07-23T14:35:47.170Z,5.77
2018-07-23T14:40:39.899Z,3.80
2018-07-23T14:45:32.543Z,3.90
2018-07-23T14:50:25.194Z,3.93
2018-07-23T14:55:17.808Z,2.83
2018-07-23T15:00:10.392Z,5.50
2018-07-23T15:05:02.973Z,4.57
2018-07-23T15:09:55.518Z,3.30
2018-07-23T15:14:49.299Z,5.53
2018-07-23T15:19:41.921Z,5.63
2018-07-23T15:24:34.662Z,3.10
2018-07-23T15:29:27.290Z,3.50
2018-07-23T15:34:19.970Z,4.13
2018-07-23T15:39:12.601Z,3.83
2018-07-23T15:44:05.269Z,3.50
2018-07-23T15:48:57.722Z,3.27
2018-07-23T15:53:50.302Z,3.27
2018-07-23T15:58:42.816Z,4.67
2018-07-23T16:03:35.402Z,4.53
2018-07-23T16:08:27.972Z,4.07
2018-07-23T16:13:20.527Z,4.87
2018-07-23T16:18:13.108Z,4.13
2018-07-23T16:23:05.819Z,4.17
2018-07-23T16:27:58.414Z,4.03
2018-07-23T16:32:50.986Z,4.27
2018-07-23T16:37:43.588Z,5.47
2018-07-23T16:42:36.258Z,5.10
2018-07-23T16:47:28.843Z,4.37
2018-07-23T16:52:21.497Z,3.63
2018-07-23T16:57:14.140Z,4.50
2018-07-23T17:02:06.825Z,3.67
2018-07-23T17:06:59.457Z,4.73
2018-07-23T17:11:52.108Z,3.63
2018-07-23T17:16:44.678Z,4.20
2018-07-23T17:21:37.290Z,6.33
2018-07-23T17:26:29.840Z,9.13
2018-07-23T17:31:22.433Z,4.60
2018-07-23T17:36:15.064Z,5.37
2018-07-23T17:41:07.653Z,4.97
2018-07-23T17:46:00.442Z,7.10
2018-07-23T17:50:53.090Z,7.70
2018-07-23T17:55:45.640Z,7.37
2018-07-23T18:00:38.192Z,7.63
2018-07-23T18:05:30.887Z,8.90
2018-07-23T18:10:23.520Z,8.37
2018-07-23T18:15:16.123Z,4.67
2018-07-23T18:20:08.713Z,4.80
2018-07-23T18:25:01.770Z,4.20
2018-07-23T18:29:54.392Z,4.90
2018-07-23T18:34:47.002Z,8.63
2018-07-23T18:39:39.634Z,13.50
2018-07-23T18:44:32.277Z,4.53
2018-07-23T18:49:43.862Z,9.30
2018-07-23T18:54:36.865Z,7.73
2018-07-23T18:59:29.529Z,4.70
2018-07-23T19:04:22.198Z,7.27
2018-07-23T19:09:16.090Z,5.23
2018-07-23T19:14:08.861Z,5.70
2018-07-23T19:19:02.386Z,9.57
2018-07-23T19:23:54.949Z,7.90
2018-07-23T19:28:47.620Z,6.10
2018-07-23T19:33:40.148Z,7.30
2018-07-23T19:38:32.737Z,9.03
2018-07-23T19:43:25.571Z,8.03
2018-07-23T19:48:18.154Z,8.30
2018-07-23T19:53:10.804Z,9.80
2018-07-23T19:58:03.528Z,8.67
2018-07-23T20:02:56.326Z,6.63
2018-07-23T20:07:49.380Z,5.07
2018-07-23T20:12:42.382Z,6.63
2018-07-23T20:17:35.080Z,8.40
2018-07-23T20:22:27.717Z,10.97
2018-07-23T20:27:20.393Z,5.83
2018-07-23T20:32:13.262Z,9.40
2018-07-23T20:37:05.866Z,6.23
2018-07-23T20:41:58.538Z,8.17
2018-07-23T20:46:51.410Z,9.80
2018-07-23T20:51:44.124Z,7.67
2018-07-23T20:56:36.842Z,4.40
2018-07-23T21:01:29.441Z,4.93
2018-07-23T21:06:22.449Z,5.50
2018-07-23T21:11:15.417Z,9.93
2018-07-23T21:16:08.372Z,6.03
2018-07-23T21:21:01.114Z,8.13
2018-07-23T21:25:53.753Z,8.43
2018-07-23T21:30:46.615Z,6.80
2018-07-23T21:35:39.312Z,5.93
2018-07-23T21:40:31.941Z,5.63
2018-07-23T21:45:24.677Z,4.37
2018-07-23T21:50:17.306Z,7.70
2018-07-23T21:55:09.985Z,8.80
2018-07-23T22:00:02.621Z,4.47
2018-07-23T22:04:55.402Z,5.03
2018-07-23T22:09:48.071Z,6.63
2018-07-23T22:14:40.823Z,7.20
2018-07-23T22:19:33.465Z,5.90
2018-07-23T22:24:26.145Z,4.47
2018-07-23T22:29:18.788Z,5.23
2018-07-23T22:34:11.530Z,5.60
2018-07-23T22:39:07.873Z,6.67
2018-07-23T22:44:00.515Z,7.17
2018-07-23T22:48:53.193Z,5.50
2018-07-23T22:53:45.758Z,5.00
2018-07-23T22:58:38.337Z,6.57
2018-07-23T23:03:31.087Z,7.10
2018-07-23T23:08:23.738Z,5.47
2018-07-23T23:13:16.603Z,5.10
2018-07-23T23:18:09.377Z,5.47
2018-07-23T23:23:01.998Z,5.57
2018-07-23T23:27:54.585Z,12.47
2018-07-23T23:32:47.168Z,6.37
2018-07-23T23:37:39.837Z,7.43
2018-07-23T23:42:32.456Z,16.77
2018-07-23T23:47:25.107Z,8.53
2018-07-23T23:52:17.785Z,10.07
2018-07-23T23:57:10.377Z,6.83
